createdAt,value
2023-02-15T00:01:55.374Z,53.97
2023-02-15T00:04:25.567Z,57.07
2023-02-15T00:06:53.239Z,56.67
2023-02-15T00:09:20.918Z,54.57
2023-02-15T00:11:51.868Z,59.90
2023-02-15T00:14:21.124Z,52.33
2023-02-15T00:16:50.178Z,58.47
2023-02-15T00:19:21.395Z,53.90
2023-02-15T00:21:50.563Z,63.33
2023-02-15T00:24:20.231Z,55.83
2023-02-15T00:26:49.266Z,59.77
2023-02-15T00:29:19.814Z,58.40
2023-02-15T00:31:49.118Z,56.20
2023-02-15T00:34:21.060Z,55.80
2023-02-15T00:36:48.957Z,74.70
2023-02-15T00:39:18.165Z,55.17
2023-02-15T00:41:46.528Z,54.37
2023-02-15T00:44:15.399Z,62.60
2023-02-15T00:46:44.021Z,60.07
2023-02-15T00:49:12.925Z,51.70
2023-02-15T00:51:42.051Z,57.80
2023-02-15T00:54:09.836Z,54.80
2023-02-15T00:56:37.677Z,56.60
2023-02-15T00:59:05.476Z,53.77
2023-02-15T01:01:34.388Z,60.37
2023-02-15T01:04:02.169Z,62.33
2023-02-15T01:06:31.069Z,59.20
2023-02-15T01:09:00.340Z,53.83
2023-02-15T01:11:28.292Z,59.90
2023-02-15T01:13:57.456Z,65.17
2023-02-15T01:16:27.114Z,59.97
2023-02-15T01:18:55.923Z,55.63
2023-02-15T01:21:26.239Z,61.27
2023-02-15T01:23:54.300Z,57.07
2023-02-15T01:26:23.531Z,63.13
2023-02-15T01:28:51.201Z,66.70
2023-02-15T01:31:21.251Z,79.73
2023-02-15T01:33:50.044Z,74.43
2023-02-15T01:36:18.842Z,72.07
2023-02-15T01:38:46.987Z,66.43
2023-02-15T01:41:28.603Z,74.37
2023-02-15T01:43:59.861Z,69.90
2023-02-15T01:46:34.068Z,69.33
2023-02-15T01:49:08.980Z,62.97
2023-02-15T01:51:40.330Z,88.23
2023-02-15T01:54:13.959Z,80.13
2023-02-15T01:56:43.087Z,100.27
2023-02-15T01:59:19.053Z,72.83
2023-02-15T02:01:47.949Z,65.00
2023-02-15T02:04:24.751Z,77.87
2023-02-15T02:06:53.505Z,79.07
2023-02-15T02:09:22.036Z,87.63
2023-02-15T02:11:50.561Z,64.10
2023-02-15T02:14:20.678Z,78.37
2023-02-15T02:16:55.893Z,83.53
2023-02-15T02:19:56.644Z,78.40
2023-02-15T02:22:57.100Z,72.27
2023-02-15T02:25:40.347Z,65.77
2023-02-15T02:28:25.260Z,76.70
2023-02-15T02:31:20.366Z,66.67
2023-02-15T02:34:00.265Z,70.27
2023-02-15T02:36:37.697Z,64.13
2023-02-15T02:39:20.689Z,57.67
2023-02-15T02:41:58.206Z,81.07
2023-02-15T02:44:31.107Z,67.17
2023-02-15T02:47:06.362Z,55.23
2023-02-15T02:49:37.452Z,92.63
2023-02-15T02:52:08.241Z,74.77
2023-02-15T02:54:37.806Z,68.77
2023-02-15T02:57:10.310Z,55.77
2023-02-15T02:59:43.940Z,58.83
2023-02-15T03:02:18.648Z,58.70
2023-02-15T03:04:58.842Z,54.23
2023-02-15T03:07:30.640Z,67.27
2023-02-15T03:10:02.157Z,61.07
2023-02-15T03:12:33.978Z,56.53
2023-02-15T03:15:09.136Z,58.97
2023-02-15T03:17:42.939Z,55.73
2023-02-15T03:20:17.755Z,56.23
2023-02-15T03:22:51.008Z,71.60
2023-02-15T03:25:24.806Z,58.70
2023-02-15T03:27:57.526Z,54.23
2023-02-15T03:30:28.627Z,64.63
2023-02-15T03:32:59.892Z,53.67
2023-02-15T03:35:35.594Z,57.30
2023-02-15T03:38:08.115Z,53.13
2023-02-15T03:40:57.297Z,63.17
2023-02-15T03:43:32.598Z,57.37
2023-02-15T03:46:08.870Z,75.93
2023-02-15T03:48:41.508Z,51.73
2023-02-15T03:51:32.080Z,82.37
2023-02-15T03:54:01.417Z,53.93
2023-02-15T03:56:29.136Z,64.20
2023-02-15T03:59:14.659Z,60.83
2023-02-15T04:02:01.505Z,56.97
2023-02-15T04:04:34.762Z,64.50
2023-02-15T04:07:05.582Z,70.03
2023-02-15T04:09:50.939Z,60.83
2023-02-15T04:12:18.854Z,55.67
2023-02-15T04:15:04.199Z,55.70
2023-02-15T04:17:32.041Z,67.47
2023-02-15T04:20:17.289Z,71.17
2023-02-15T04:23:04.287Z,58.33
2023-02-15T04:25:31.956Z,63.93
2023-02-15T04:27:59.722Z,60.83
2023-02-15T04:30:28.996Z,59.93
2023-02-15T04:32:58.158Z,60.07
2023-02-15T04:35:26.853Z,73.23
2023-02-15T04:37:56.713Z,60.13
2023-02-15T04:40:24.558Z,52.00
2023-02-15T04:42:52.426Z,61.00
2023-02-15T04:45:20.677Z,57.80
2023-02-15T04:47:48.462Z,65.97
2023-02-15T04:50:16.700Z,63.80
2023-02-15T04:52:44.462Z,61.07
2023-02-15T04:55:13.625Z,52.70
2023-02-15T04:57:41.490Z,77.00
2023-02-15T05:00:10.830Z,70.50
2023-02-15T05:02:38.677Z,51.83
2023-02-15T05:05:07.075Z,64.13
2023-02-15T05:07:34.708Z,54.23
2023-02-15T05:10:02.461Z,52.30
2023-02-15T05:12:31.736Z,53.73
2023-02-15T05:14:59.549Z,57.23
2023-02-15T05:17:27.508Z,63.57
2023-02-15T05:19:55.366Z,60.23
2023-02-15T05:22:23.152Z,48.63
2023-02-15T05:25:08.324Z,50.50
2023-02-15T05:27:54.614Z,49.07
2023-02-15T05:30:22.615Z,46.40
2023-02-15T05:32:50.399Z,44.83
2023-02-15T05:35:20.009Z,42.47
2023-02-15T05:37:47.965Z,44.07
2023-02-15T05:40:16.205Z,39.60
2023-02-15T05:42:45.249Z,40.83
2023-02-15T05:45:13.006Z,41.63
2023-02-15T05:47:40.800Z,47.10
2023-02-15T05:50:09.550Z,42.10
2023-02-15T05:52:37.295Z,47.33
2023-02-15T05:55:05.388Z,49.43
2023-02-15T05:57:33.335Z,58.37
2023-02-15T06:00:05.210Z,55.07
2023-02-15T06:02:39.775Z,64.67
2023-02-15T06:05:08.508Z,70.30
2023-02-15T06:07:36.364Z,52.47
2023-02-15T06:10:04.869Z,60.53
2023-02-15T06:12:33.011Z,61.97
2023-02-15T06:15:02.131Z,53.13
2023-02-15T06:17:29.994Z,50.17
2023-02-15T06:19:57.894Z,60.70
2023-02-15T06:22:25.782Z,55.47
2023-02-15T06:24:53.566Z,57.80
2023-02-15T06:27:21.368Z,51.97
2023-02-15T06:29:48.968Z,56.63
2023-02-15T06:32:18.525Z,55.37
2023-02-15T06:34:48.040Z,56.07
2023-02-15T06:37:16.785Z,45.80
2023-02-15T06:39:45.283Z,51.07
2023-02-15T06:42:13.289Z,46.23
2023-02-15T06:44:41.051Z,51.63
2023-02-15T06:47:09.153Z,50.97
2023-02-15T06:49:38.395Z,48.87
2023-02-15T06:52:07.048Z,50.60
2023-02-15T06:54:34.945Z,48.70
2023-02-15T06:57:02.736Z,52.33
2023-02-15T06:59:30.514Z,51.10
2023-02-15T07:01:58.326Z,51.60
2023-02-15T07:04:26.088Z,53.37
2023-02-15T07:06:55.183Z,57.60
2023-02-15T07:09:22.923Z,51.90
2023-02-15T07:12:07.980Z,53.87
2023-02-15T07:14:35.792Z,52.63
2023-02-15T07:17:03.538Z,57.00
2023-02-15T07:19:31.413Z,54.73
2023-02-15T07:22:00.505Z,52.27
2023-02-15T07:24:28.619Z,65.67
2023-02-15T07:26:56.367Z,55.37
2023-02-15T07:29:24.110Z,65.73
2023-02-15T07:31:52.290Z,70.47
2023-02-15T07:34:20.054Z,69.50
2023-02-15T07:36:48.060Z,59.83
2023-02-15T07:39:17.617Z,66.13
2023-02-15T07:41:45.325Z,60.43
2023-02-15T07:44:15.006Z,61.40
2023-02-15T07:46:43.356Z,58.60
2023-02-15T07:49:11.072Z,60.83
2023-02-15T07:51:38.933Z,53.77
2023-02-15T07:54:06.713Z,47.40
2023-02-15T07:56:37.203Z,51.40
2023-02-15T07:59:06.001Z,68.23
2023-02-15T08:01:36.148Z,57.77
2023-02-15T08:04:05.297Z,58.63
2023-02-15T08:06:36.405Z,51.67
2023-02-15T08:09:06.286Z,67.43
2023-02-15T08:11:40.801Z,48.93
2023-02-15T08:14:10.250Z,43.63
2023-02-15T08:16:39.979Z,42.63
2023-02-15T08:19:10.494Z,43.27
2023-02-15T08:21:39.850Z,42.53
2023-02-15T08:24:09.365Z,44.97
2023-02-15T08:26:42.221Z,42.57
2023-02-15T08:29:11.129Z,45.30
2023-02-15T08:31:39.429Z,48.87
2023-02-15T08:34:07.705Z,40.33
2023-02-15T08:36:36.063Z,40.57
2023-02-15T08:39:07.738Z,39.90
2023-02-15T08:41:37.118Z,40.47
2023-02-15T08:44:08.079Z,38.57
2023-02-15T08:46:37.887Z,40.77
2023-02-15T08:49:06.133Z,35.63
2023-02-15T08:51:36.015Z,37.60
2023-02-15T08:54:06.404Z,34.03
2023-02-15T08:56:36.005Z,33.40
2023-02-15T08:59:06.627Z,33.03
2023-02-15T09:01:36.785Z,33.07
2023-02-15T09:04:07.311Z,34.63
2023-02-15T09:06:35.322Z,32.73
2023-02-15T09:09:04.541Z,33.33
2023-02-15T09:11:35.688Z,32.10
2023-02-15T09:14:05.521Z,33.03
2023-02-15T09:16:36.773Z,30.10
2023-02-15T09:19:06.571Z,32.00
2023-02-15T09:21:35.494Z,32.43
2023-02-15T09:24:05.559Z,36.07
2023-02-15T09:26:35.831Z,37.00
2023-02-15T09:29:04.535Z,36.07
2023-02-15T09:31:35.619Z,36.17
2023-02-15T09:34:03.482Z,38.60
2023-02-15T09:36:35.082Z,36.67
2023-02-15T09:39:08.578Z,36.97
2023-02-15T09:42:03.400Z,34.30
2023-02-15T09:44:43.920Z,35.07
2023-02-15T09:47:41.374Z,37.77
2023-02-15T09:50:19.364Z,38.43
2023-02-15T09:53:02.649Z,33.37
2023-02-15T09:55:41.180Z,44.50
2023-02-15T09:58:19.472Z,40.50
2023-02-15T10:00:58.988Z,36.83
2023-02-15T10:03:56.414Z,36.17
2023-02-15T10:06:34.836Z,36.00
2023-02-15T10:09:19.704Z,35.37
2023-02-15T10:12:03.532Z,36.63
2023-02-15T10:14:46.551Z,36.67
2023-02-15T10:17:31.191Z,35.93
2023-02-15T10:20:13.285Z,35.10
2023-02-15T10:22:55.048Z,36.60
2023-02-15T10:25:34.728Z,36.03
2023-02-15T10:28:07.648Z,35.17
2023-02-15T10:30:44.270Z,34.53
2023-02-15T10:33:25.529Z,32.37
2023-02-15T10:36:05.721Z,33.20
2023-02-15T10:38:39.262Z,34.33
2023-02-15T10:41:19.887Z,35.80
2023-02-15T10:44:04.703Z,36.07
2023-02-15T10:46:51.004Z,33.97
2023-02-15T10:49:35.640Z,33.00
2023-02-15T10:52:20.004Z,33.03
2023-02-15T10:54:56.569Z,33.63
2023-02-15T10:57:32.751Z,34.23
2023-02-15T11:00:10.340Z,31.73
2023-02-15T11:02:52.389Z,31.20
2023-02-15T11:05:37.287Z,30.37
2023-02-15T11:08:11.430Z,36.10
2023-02-15T11:10:43.479Z,32.83
2023-02-15T11:13:15.430Z,33.17
2023-02-15T11:15:48.449Z,29.40
2023-02-15T11:18:24.796Z,34.67
2023-02-15T11:20:57.661Z,34.23
2023-02-15T11:23:28.284Z,36.60
2023-02-15T11:25:59.748Z,33.27
2023-02-15T11:28:33.199Z,33.43
2023-02-15T11:31:12.832Z,35.70
2023-02-15T11:33:46.664Z,34.23
2023-02-15T11:36:20.354Z,34.37
2023-02-15T11:38:54.519Z,34.90
2023-02-15T11:41:26.882Z,35.63
2023-02-15T11:44:00.270Z,38.17
2023-02-15T11:46:28.049Z,31.73
2023-02-15T11:48:56.107Z,35.50
2023-02-15T11:51:25.009Z,35.33
2023-02-15T11:53:54.856Z,35.90
2023-02-15T11:56:24.849Z,38.57
2023-02-15T11:58:56.381Z,33.30
2023-02-15T12:01:31.951Z,36.17
2023-02-15T12:04:05.127Z,34.13
2023-02-15T12:06:36.300Z,37.10
2023-02-15T12:09:15.196Z,35.33
2023-02-15T12:11:43.913Z,36.70
2023-02-15T12:14:16.715Z,39.37
2023-02-15T12:16:47.105Z,36.67
2023-02-15T12:19:32.190Z,35.75
2023-02-15T12:22:01.701Z,36.23
2023-02-15T12:24:32.600Z,36.83
2023-02-15T12:27:04.611Z,38.13
2023-02-15T12:29:41.129Z,41.03
2023-02-15T12:32:19.374Z,42.90
2023-02-15T12:34:48.561Z,42.23
2023-02-15T12:37:23.481Z,40.97
2023-02-15T12:39:57.906Z,41.17
2023-02-15T12:42:27.495Z,46.67
2023-02-15T12:44:58.351Z,36.57
2023-02-15T12:47:30.702Z,42.87
2023-02-15T12:50:17.783Z,39.03
2023-02-15T12:52:49.364Z,47.33
2023-02-15T12:55:25.167Z,48.17
2023-02-15T12:58:08.470Z,48.30
2023-02-15T13:00:36.549Z,52.97
2023-02-15T13:03:04.817Z,52.45
2023-02-15T13:05:36.196Z,54.33
2023-02-15T13:08:10.957Z,53.07
2023-02-15T13:10:43.787Z,52.23
2023-02-15T13:13:13.615Z,59.07
2023-02-15T13:15:46.128Z,57.53
2023-02-15T13:18:18.903Z,59.03
2023-02-15T13:20:48.167Z,52.77
2023-02-15T13:23:28.315Z,56.73
2023-02-15T13:26:00.186Z,57.93
2023-02-15T13:28:42.608Z,54.43
2023-02-15T13:31:16.613Z,56.93
2023-02-15T13:33:48.672Z,56.30
2023-02-15T13:36:23.906Z,57.13
2023-02-15T13:38:59.980Z,60.22
2023-02-15T13:41:36.653Z,61.97
2023-02-15T13:44:16.785Z,64.47
2023-02-15T13:46:58.884Z,56.13
2023-02-15T13:49:41.713Z,59.37
2023-02-15T13:52:22.096Z,64.90
2023-02-15T13:55:23.358Z,64.55
2023-02-15T13:58:09.035Z,65.20
2023-02-15T14:00:47.829Z,62.20
2023-02-15T14:03:49.813Z,65.60
2023-02-15T14:06:35.269Z,61.90
2023-02-15T14:09:15.897Z,69.73
2023-02-15T14:11:53.833Z,68.65
2023-02-15T14:14:48.236Z,68.35
2023-02-15T14:17:25.221Z,67.25
2023-02-15T14:19:59.542Z,70.28
2023-02-15T14:22:33.688Z,68.32
2023-02-15T14:25:19.802Z,65.30
2023-02-15T14:27:58.247Z,70.57
2023-02-15T14:30:32.776Z,66.53
2023-02-15T14:33:07.731Z,72.43
2023-02-15T14:35:36.537Z,71.83
2023-02-15T14:38:13.379Z,75.77
2023-02-15T14:41:04.112Z,68.68
2023-02-15T14:43:54.202Z,70.80
2023-02-15T14:46:32.480Z,74.72
2023-02-15T14:49:08.741Z,83.13
2023-02-15T14:52:00.055Z,85.20
2023-02-15T14:54:59.725Z,81.00
2023-02-15T14:57:34.727Z,78.93
2023-02-15T15:00:25.774Z,81.07
2023-02-15T15:02:55.478Z,73.93
2023-02-15T15:05:31.761Z,74.10
2023-02-15T15:08:01.927Z,78.17
2023-02-15T15:10:45.179Z,77.53
2023-02-15T15:13:39.992Z,78.63
2023-02-15T15:16:30.022Z,78.13
2023-02-15T15:19:00.845Z,79.80
2023-02-15T15:21:55.300Z,82.82
2023-02-15T15:24:49.120Z,86.93
2023-02-15T15:27:55.246Z,81.40
2023-02-15T15:30:52.857Z,78.15
2023-02-15T15:34:01.199Z,77.43
2023-02-15T15:37:10.580Z,79.13
2023-02-15T15:40:13.964Z,74.97
2023-02-15T15:42:52.336Z,77.93
2023-02-15T15:45:46.550Z,80.67
2023-02-15T15:48:35.895Z,85.22
2023-02-15T15:51:08.795Z,82.70
2023-02-15T15:53:43.241Z,84.77
2023-02-15T15:56:17.325Z,83.70
2023-02-15T15:58:50.843Z,84.07
2023-02-15T16:01:18.937Z,92.30
2023-02-15T16:03:56.246Z,79.53
2023-02-15T16:06:33.784Z,83.30
2023-02-15T16:09:20.536Z,83.55
2023-02-15T16:11:52.345Z,81.30
2023-02-15T16:14:28.634Z,76.57
2023-02-15T16:16:59.324Z,80.90
2023-02-15T16:19:31.602Z,83.20
2023-02-15T16:22:02.573Z,86.27
2023-02-15T16:24:45.187Z,86.13
2023-02-15T16:27:35.459Z,92.43
2023-02-15T16:30:25.184Z,89.20
2023-02-15T16:32:57.594Z,86.27
2023-02-15T16:35:25.949Z,84.30
2023-02-15T16:37:53.927Z,87.63
2023-02-15T16:40:55.153Z,88.40
2023-02-15T16:43:28.522Z,85.87
2023-02-15T16:46:05.512Z,86.87
2023-02-15T16:48:34.989Z,86.00
2023-02-15T16:51:03.911Z,88.30
2023-02-15T16:53:32.163Z,92.93
2023-02-15T16:56:04.234Z,94.17
2023-02-15T16:58:39.881Z,90.73
2023-02-15T17:01:10.103Z,92.97
2023-02-15T17:03:37.968Z,92.47
2023-02-15T17:06:21.740Z,93.70
2023-02-15T17:08:49.702Z,91.43
2023-02-15T17:11:20.584Z,84.97
2023-02-15T17:14:15.267Z,78.77
2023-02-15T17:16:50.054Z,77.83
2023-02-15T17:19:22.891Z,86.17
2023-02-15T17:21:55.020Z,82.70
2023-02-15T17:24:31.105Z,80.68
2023-02-15T17:27:05.064Z,84.53
2023-02-15T17:29:39.248Z,86.53
2023-02-15T17:32:15.014Z,81.53
2023-02-15T17:34:50.040Z,70.87
2023-02-15T17:37:28.084Z,68.38
2023-02-15T17:39:56.785Z,72.33
2023-02-15T17:42:26.301Z,71.30
2023-02-15T17:44:54.099Z,75.40
2023-02-15T17:47:25.600Z,72.97
2023-02-15T17:49:54.702Z,69.93
2023-02-15T17:52:23.013Z,75.30
2023-02-15T17:55:08.336Z,71.00
2023-02-15T17:57:38.675Z,75.87
2023-02-15T18:00:25.338Z,71.83
2023-02-15T18:03:12.206Z,72.30
2023-02-15T18:05:57.798Z,65.50
2023-02-15T18:08:46.723Z,73.90
2023-02-15T18:11:32.432Z,72.20
2023-02-15T18:14:02.331Z,75.23
2023-02-15T18:16:33.403Z,66.87
2023-02-15T18:19:01.719Z,72.90
2023-02-15T18:21:30.057Z,64.93
2023-02-15T18:23:57.910Z,69.97
2023-02-15T18:26:27.288Z,70.90
2023-02-15T18:28:55.153Z,71.32
2023-02-15T18:31:25.371Z,72.67
2023-02-15T18:33:55.856Z,78.97
2023-02-15T18:36:28.459Z,75.30
2023-02-15T18:38:56.677Z,75.67
2023-02-15T18:41:25.460Z,71.67
2023-02-15T18:43:53.998Z,77.53
2023-02-15T18:46:22.013Z,79.90
2023-02-15T18:48:51.834Z,73.50
2023-02-15T18:51:21.353Z,75.33
2023-02-15T18:53:51.576Z,73.17
2023-02-15T18:56:21.101Z,70.40
2023-02-15T18:58:49.274Z,73.77
2023-02-15T19:01:20.049Z,72.87
2023-02-15T19:03:49.252Z,68.97
2023-02-15T19:06:21.061Z,76.70
2023-02-15T19:08:52.144Z,75.70
2023-02-15T19:11:24.463Z,77.67
2023-02-15T19:13:54.379Z,74.60
2023-02-15T19:16:31.452Z,69.90
2023-02-15T19:19:00.880Z,74.15
2023-02-15T19:21:33.486Z,76.20
2023-02-15T19:24:05.385Z,81.20
2023-02-15T19:26:45.935Z,81.00
2023-02-15T19:29:15.978Z,75.22
2023-02-15T19:31:44.053Z,80.03
2023-02-15T19:34:16.665Z,87.60
2023-02-15T19:36:48.757Z,75.73
2023-02-15T19:39:29.282Z,76.50
2023-02-15T19:41:57.840Z,82.27
2023-02-15T19:44:26.284Z,83.10
2023-02-15T19:46:54.202Z,73.03
2023-02-15T19:49:22.696Z,76.10
2023-02-15T19:51:52.517Z,79.40
2023-02-15T19:54:29.292Z,80.07
2023-02-15T19:56:58.104Z,68.93
2023-02-15T19:59:28.826Z,71.80
2023-02-15T20:01:57.393Z,69.67
2023-02-15T20:04:27.210Z,68.53
2023-02-15T20:07:01.153Z,67.82
2023-02-15T20:09:32.142Z,71.47
2023-02-15T20:12:00.009Z,69.00
2023-02-15T20:14:28.630Z,72.13
2023-02-15T20:16:57.525Z,70.40
2023-02-15T20:19:25.879Z,75.27
2023-02-15T20:21:55.134Z,70.77
2023-02-15T20:24:29.787Z,67.97
2023-02-15T20:26:57.991Z,74.23
2023-02-15T20:29:27.215Z,72.80
2023-02-15T20:31:55.715Z,99.97
2023-02-15T20:34:24.227Z,75.47
2023-02-15T20:36:53.200Z,79.87
2023-02-15T20:39:21.544Z,74.23
2023-02-15T20:41:51.092Z,80.90
2023-02-15T20:44:26.069Z,75.27
2023-02-15T20:46:56.886Z,76.53
2023-02-15T20:49:26.352Z,89.87
2023-02-15T20:51:56.128Z,75.37
2023-02-15T20:54:27.011Z,69.30
2023-02-15T20:56:56.476Z,67.50
2023-02-15T20:59:26.950Z,73.27
2023-02-15T21:01:59.485Z,64.63
2023-02-15T21:04:31.704Z,63.67
2023-02-15T21:06:59.860Z,65.63
2023-02-15T21:09:28.314Z,68.93
2023-02-15T21:11:59.568Z,62.72
2023-02-15T21:14:29.419Z,69.93
2023-02-15T21:16:57.956Z,74.30
2023-02-15T21:19:27.109Z,71.67
2023-02-15T21:21:55.286Z,74.57
2023-02-15T21:24:26.995Z,73.75
2023-02-15T21:26:58.483Z,68.33
2023-02-15T21:29:28.628Z,72.50
2023-02-15T21:31:58.224Z,73.33
2023-02-15T21:34:27.417Z,76.13
2023-02-15T21:36:55.721Z,71.93
2023-02-15T21:39:26.744Z,68.13
2023-02-15T21:42:14.789Z,80.03
2023-02-15T21:45:00.568Z,81.40
2023-02-15T21:47:48.404Z,71.93
2023-02-15T21:50:41.747Z,71.73
2023-02-15T21:53:13.204Z,77.63
2023-02-15T21:55:41.238Z,81.77
2023-02-15T21:58:25.394Z,78.70
2023-02-15T22:00:55.980Z,73.50
2023-02-15T22:03:25.038Z,79.60
2023-02-15T22:05:53.508Z,78.47
2023-02-15T22:08:21.397Z,82.90
2023-02-15T22:10:49.693Z,81.10
2023-02-15T22:13:28.092Z,83.07
2023-02-15T22:15:57.070Z,81.97
2023-02-15T22:18:27.711Z,73.83
2023-02-15T22:20:56.239Z,72.43
2023-02-15T22:23:25.185Z,99.60
2023-02-15T22:25:58.006Z,79.10
2023-02-15T22:28:32.117Z,91.50
2023-02-15T22:31:00.746Z,76.73
2023-02-15T22:33:30.796Z,81.57
2023-02-15T22:35:59.474Z,70.77
2023-02-15T22:38:27.425Z,74.70
2023-02-15T22:40:58.177Z,83.40
2023-02-15T22:43:36.468Z,68.97
2023-02-15T22:46:07.342Z,76.17
2023-02-15T22:48:35.738Z,68.43
2023-02-15T22:51:03.987Z,95.30
2023-02-15T22:53:31.882Z,83.30
2023-02-15T22:56:09.850Z,93.07
2023-02-15T22:58:38.906Z,95.03
2023-02-15T23:01:06.644Z,98.63
2023-02-15T23:03:34.769Z,89.40
2023-02-15T23:06:02.628Z,114.80
2023-02-15T23:08:30.325Z,116.40
2023-02-15T23:10:58.692Z,147.20
2023-02-15T23:13:30.557Z,90.03
2023-02-15T23:16:01.661Z,90.20
2023-02-15T23:18:32.564Z,67.73
2023-02-15T23:21:03.697Z,83.03
2023-02-15T23:23:34.184Z,79.17
2023-02-15T23:26:04.513Z,80.83
2023-02-15T23:28:35.953Z,89.13
2023-02-15T23:31:16.157Z,77.13
2023-02-15T23:33:44.486Z,74.50
2023-02-15T23:36:25.747Z,71.37
2023-02-15T23:38:54.112Z,79.40
2023-02-15T23:41:25.913Z,79.33
2023-02-15T23:43:56.335Z,78.40
2023-02-15T23:46:30.134Z,88.93
2023-02-15T23:48:58.370Z,90.10
2023-02-15T23:51:31.445Z,104.97
2023-02-15T23:53:59.310Z,64.90
2023-02-15T23:56:27.233Z,78.37
2023-02-15T23:58:55.163Z,58.57
